Terminal Aerodrome Forecast
Issued by NWS Charleston, WV

Current Version | Previous Version | Graphics & Text | Print | Product List | Glossary On
Versions: 1 2 3 4 5 6 7 8 9 10 11 12 13 14 15 16 17 18 19 20 21 22 23 24 25
000
FTUS41 KRLX 252335
TAFBKW
TAF
KBKW 252335Z 2600/2624 VRB03KT P6SM SCT035
     FM260500 14004KT 5SM BR BKN005
     FM261000 15006KT 2SM BR BKN005
     FM261300 16006KT 6SM BR BKN035
     FM262000 22009G15KT 5SM SHRA VCTS BKN025CB=

USA.gov is the U.S. government's official web portal to all federal, state and local government web resources and services.